createdAt,value
2022-10-26T00:02:00.062Z,9.13
2022-10-26T00:05:06.969Z,8.25
2022-10-26T00:08:13.390Z,9.68
2022-10-26T00:11:18.035Z,7.50
2022-10-26T00:14:10.444Z,5.25
2022-10-26T00:17:11.281Z,16.67
2022-10-26T00:20:16.708Z,7.58
2022-10-26T00:23:23.721Z,7.80
2022-10-26T00:26:29.662Z,12.60
2022-10-26T00:29:36.081Z,8.00
2022-10-26T00:32:43.082Z,6.15
2022-10-26T00:35:50.725Z,12.20
2022-10-26T00:38:56.060Z,13.05
2022-10-26T00:42:01.843Z,8.15
2022-10-26T00:45:17.400Z,7.12
2022-10-26T00:48:28.845Z,7.15
2022-10-26T00:51:57.002Z,9.75
2022-10-26T00:55:03.567Z,9.60
2022-10-26T00:58:09.440Z,5.28
2022-10-26T01:01:16.434Z,7.78
2022-10-26T01:04:22.556Z,10.30
2022-10-26T01:07:29.213Z,6.22
2022-10-26T01:10:36.450Z,8.88
2022-10-26T01:13:44.821Z,9.85
2022-10-26T01:20:39.923Z,9.23
2022-10-26T01:23:59.519Z,8.93
2022-10-26T01:27:22.132Z,11.38
2022-10-26T01:30:33.576Z,9.53
2022-10-26T01:33:58.537Z,14.00
2022-10-26T01:37:09.511Z,10.85
2022-10-26T01:40:24.093Z,9.98
2022-10-26T01:43:30.234Z,10.72
2022-10-26T01:46:37.530Z,15.15
2022-10-26T01:49:47.710Z,8.70
2022-10-26T01:52:54.317Z,12.58
2022-10-26T01:56:03.472Z,13.80
2022-10-26T01:59:42.621Z,10.97
2022-10-26T02:03:14.128Z,11.90
2022-10-26T02:06:43.194Z,13.13
2022-10-26T02:09:50.091Z,9.00
2022-10-26T02:13:26.113Z,8.93
2022-10-26T02:16:50.299Z,13.83
2022-10-26T02:20:09.012Z,8.38
2022-10-26T02:23:18.786Z,10.98
2022-10-26T02:26:26.159Z,10.70
2022-10-26T02:29:33.878Z,11.40
2022-10-26T02:32:42.002Z,9.80
2022-10-26T02:35:49.246Z,11.43
2022-10-26T02:38:55.222Z,17.80
2022-10-26T02:42:02.659Z,21.95
2022-10-26T02:45:14.813Z,14.15
2022-10-26T02:48:21.037Z,15.23
2022-10-26T02:51:42.904Z,12.75
2022-10-26T02:55:09.063Z,14.10
2022-10-26T02:58:17.135Z,11.28
2022-10-26T03:01:23.891Z,15.28
2022-10-26T03:04:23.268Z,15.48
2022-10-26T03:07:37.218Z,12.07
2022-10-26T03:10:42.150Z,19.35
2022-10-26T03:13:48.517Z,23.40
2022-10-26T03:16:53.538Z,16.15
2022-10-26T03:19:59.428Z,17.48
2022-10-26T03:23:04.901Z,13.65
2022-10-26T03:26:13.191Z,11.80
2022-10-26T03:29:19.396Z,10.48
2022-10-26T03:32:25.449Z,13.55
2022-10-26T03:35:30.397Z,11.22
2022-10-26T03:38:35.629Z,7.95
2022-10-26T03:41:41.070Z,15.03
2022-10-26T03:44:47.406Z,11.35
2022-10-26T03:48:01.332Z,12.53
2022-10-26T03:51:07.060Z,11.83
2022-10-26T03:54:14.019Z,10.58
2022-10-26T03:57:20.355Z,10.53
2022-10-26T04:00:27.158Z,13.75
2022-10-26T04:03:34.537Z,11.53
2022-10-26T04:06:41.524Z,11.12
2022-10-26T04:09:47.092Z,9.08
2022-10-26T04:12:53.277Z,10.05
2022-10-26T04:15:59.829Z,13.00
2022-10-26T04:19:05.575Z,10.45
2022-10-26T04:22:11.222Z,10.08
2022-10-26T04:25:18.758Z,11.60
2022-10-26T04:28:24.664Z,9.00
2022-10-26T04:31:31.359Z,9.58
2022-10-26T04:34:38.873Z,9.15
2022-10-26T04:37:43.877Z,8.75
2022-10-26T04:40:49.575Z,10.40
2022-10-26T04:43:55.057Z,7.80
2022-10-26T04:47:01.077Z,7.05
2022-10-26T04:50:08.258Z,5.65
2022-10-26T04:53:14.960Z,7.95
2022-10-26T04:56:19.795Z,5.33
2022-10-26T04:59:26.960Z,5.55
2022-10-26T05:02:33.533Z,6.62
2022-10-26T05:05:39.069Z,8.18
2022-10-26T05:08:45.410Z,5.75
2022-10-26T05:11:51.248Z,6.83
2022-10-26T05:14:57.493Z,6.25
2022-10-26T05:18:12.567Z,3.40
2022-10-26T05:21:18.739Z,5.78
2022-10-26T05:24:25.160Z,4.28
2022-10-26T05:27:33.580Z,4.42
2022-10-26T05:30:41.045Z,8.65
2022-10-26T05:33:46.401Z,3.77
2022-10-26T05:36:52.163Z,4.00
2022-10-26T05:39:58.163Z,4.60
2022-10-26T05:43:03.849Z,4.05
2022-10-26T05:46:09.658Z,2.95
2022-10-26T05:49:15.196Z,3.92
2022-10-26T05:52:22.852Z,3.22
2022-10-26T05:55:31.585Z,9.40
2022-10-26T05:58:38.553Z,4.37
2022-10-26T06:02:30.016Z,3.52
2022-10-26T06:05:40.226Z,3.45
2022-10-26T06:08:47.229Z,4.92
2022-10-26T06:11:54.325Z,3.92
2022-10-26T06:15:00.867Z,2.85
2022-10-26T06:18:23.825Z,3.75
2022-10-26T06:21:35.340Z,5.72
2022-10-26T06:25:23.392Z,6.42
2022-10-26T06:29:05.085Z,5.85
2022-10-26T06:32:11.223Z,4.10
2022-10-26T06:35:55.113Z,6.47
2022-10-26T06:39:02.802Z,6.33
2022-10-26T06:42:08.698Z,4.70
2022-10-26T06:45:16.219Z,6.78
2022-10-26T06:48:31.865Z,5.85
2022-10-26T06:51:42.054Z,6.03
2022-10-26T06:55:04.021Z,5.35
2022-10-26T06:58:10.491Z,7.10
2022-10-26T07:01:17.585Z,3.72
2022-10-26T07:04:24.353Z,5.25
2022-10-26T07:07:36.046Z,4.47
2022-10-26T07:13:47.621Z,2.80
2022-10-26T07:16:53.832Z,3.27
2022-10-26T07:20:01.020Z,2.50
2022-10-26T07:23:08.665Z,4.95
2022-10-26T07:26:16.241Z,2.05
2022-10-26T07:29:26.843Z,3.87
2022-10-26T07:32:32.904Z,6.78
2022-10-26T07:35:39.243Z,4.40
2022-10-26T07:38:44.163Z,9.68
2022-10-26T07:41:50.418Z,16.70
2022-10-26T07:44:55.229Z,18.75
2022-10-26T07:48:00.627Z,16.37
2022-10-26T07:51:06.045Z,17.85
2022-10-26T07:54:13.921Z,9.13
2022-10-26T07:57:19.623Z,5.83
2022-10-26T08:00:27.662Z,5.22
2022-10-26T08:03:33.435Z,8.85
2022-10-26T08:06:42.139Z,8.68
2022-10-26T08:09:47.449Z,11.78
2022-10-26T08:12:53.414Z,10.72
2022-10-26T08:15:58.569Z,10.95
2022-10-26T08:19:06.156Z,15.83
2022-10-26T08:22:15.934Z,20.40
2022-10-26T08:25:21.550Z,26.33
2022-10-26T08:28:27.550Z,25.27
2022-10-26T08:31:34.223Z,30.62
2022-10-26T08:34:40.848Z,28.07
2022-10-26T08:37:47.673Z,29.05
2022-10-26T08:40:57.154Z,33.38
2022-10-26T08:44:09.475Z,35.20
2022-10-26T08:47:37.378Z,38.73
2022-10-26T08:50:48.071Z,36.25
2022-10-26T08:54:15.341Z,39.38
2022-10-26T08:57:22.653Z,42.90
2022-10-26T09:00:35.119Z,46.20
2022-10-26T09:03:41.512Z,51.33
2022-10-26T09:07:10.785Z,51.75
2022-10-26T09:13:48.991Z,67.17
2022-10-26T09:17:23.603Z,77.08
2022-10-26T09:20:45.613Z,79.87
2022-10-26T09:24:28.808Z,96.92
2022-10-26T09:27:45.517Z,94.42
2022-10-26T09:30:52.482Z,100.55
2022-10-26T09:33:58.868Z,88.37
2022-10-26T09:37:08.223Z,90.92
2022-10-26T09:40:29.566Z,91.45
2022-10-26T09:43:39.802Z,91.25
2022-10-26T09:46:58.520Z,84.60
2022-10-26T09:50:10.677Z,87.45
2022-10-26T09:53:16.753Z,75.95
2022-10-26T09:56:29.161Z,81.60
2022-10-26T09:59:37.500Z,78.70
2022-10-26T10:02:49.240Z,71.25
2022-10-26T10:05:55.790Z,66.50
2022-10-26T10:09:27.547Z,59.00
2022-10-26T10:12:36.170Z,53.28
2022-10-26T10:15:42.367Z,32.95
2022-10-26T10:18:47.865Z,30.57
2022-10-26T10:22:02.675Z,35.40
2022-10-26T10:25:14.262Z,30.40
2022-10-26T10:28:37.956Z,32.30
2022-10-26T10:31:46.579Z,29.07
2022-10-26T10:34:52.549Z,32.48
2022-10-26T10:37:57.539Z,33.58
2022-10-26T10:41:11.716Z,27.35
2022-10-26T10:44:29.434Z,18.40
2022-10-26T10:47:46.857Z,24.65
2022-10-26T10:50:51.988Z,33.58
2022-10-26T10:54:05.331Z,23.27
2022-10-26T10:57:25.730Z,24.77
2022-10-26T11:00:34.421Z,21.35
2022-10-26T11:04:04.714Z,19.62
2022-10-26T11:07:11.816Z,14.25
2022-10-26T11:10:18.852Z,14.55
2022-10-26T11:13:31.907Z,15.93
2022-10-26T11:16:54.422Z,12.80
2022-10-26T11:20:14.794Z,16.95
2022-10-26T11:23:29.279Z,10.30
2022-10-26T11:26:50.327Z,18.10
2022-10-26T11:30:20.398Z,13.95
2022-10-26T11:33:41.925Z,10.38
2022-10-26T11:36:49.064Z,9.88
2022-10-26T11:40:06.819Z,14.33
2022-10-26T11:43:33.388Z,9.93
2022-10-26T11:46:48.563Z,12.20
2022-10-26T11:50:07.458Z,10.40
2022-10-26T11:53:16.131Z,12.43
2022-10-26T11:56:34.665Z,14.40
2022-10-26T11:59:45.736Z,12.90
2022-10-26T12:02:57.211Z,12.40
2022-10-26T12:06:06.647Z,11.18
2022-10-26T12:09:22.366Z,12.85
2022-10-26T12:12:38.821Z,14.20
2022-10-26T12:16:06.116Z,11.95
2022-10-26T12:19:17.919Z,10.80
2022-10-26T12:22:27.262Z,12.93
2022-10-26T12:25:35.574Z,8.35
2022-10-26T12:28:54.735Z,10.18
2022-10-26T12:32:01.084Z,8.33
2022-10-26T12:35:10.631Z,10.10
2022-10-26T12:38:19.152Z,11.30
2022-10-26T12:41:37.304Z,10.55
2022-10-26T12:44:57.619Z,17.20
2022-10-26T12:48:15.745Z,19.07
2022-10-26T12:51:39.923Z,16.55
2022-10-26T12:55:00.151Z,24.90
2022-10-26T12:58:23.376Z,23.38
2022-10-26T13:01:42.489Z,18.40
2022-10-26T13:08:20.663Z,16.62
2022-10-26T13:11:37.222Z,15.43
2022-10-26T13:14:52.969Z,16.87
2022-10-26T13:18:05.887Z,13.95
2022-10-26T13:21:22.776Z,13.25
2022-10-26T13:24:28.749Z,14.93
2022-10-26T13:27:31.392Z,13.45
2022-10-26T13:30:50.118Z,21.12
2022-10-26T13:33:58.337Z,11.73
2022-10-26T13:37:39.080Z,17.52
2022-10-26T13:40:44.754Z,14.58
2022-10-26T13:43:52.029Z,16.55
2022-10-26T13:46:57.169Z,11.48
2022-10-26T13:50:02.645Z,12.70
2022-10-26T13:53:14.809Z,16.27
2022-10-26T13:56:40.839Z,14.50
2022-10-26T13:59:45.866Z,9.95
2022-10-26T14:02:54.731Z,13.70
2022-10-26T14:06:00.486Z,10.68
2022-10-26T14:09:08.724Z,12.93
2022-10-26T14:12:17.514Z,11.03
2022-10-26T14:15:23.424Z,8.93
2022-10-26T14:18:37.258Z,8.30
2022-10-26T14:21:42.906Z,8.50
2022-10-26T14:24:52.432Z,9.83
2022-10-26T14:27:57.725Z,8.93
2022-10-26T14:31:03.621Z,15.85
2022-10-26T14:34:11.619Z,8.95
2022-10-26T14:37:17.930Z,10.72
2022-10-26T14:40:31.885Z,8.65
2022-10-26T14:43:38.554Z,8.98
2022-10-26T14:46:48.594Z,8.68
2022-10-26T14:53:14.722Z,7.62
2022-10-26T14:56:23.437Z,8.03
2022-10-26T14:59:46.788Z,6.87
2022-10-26T15:06:00.509Z,8.55
2022-10-26T15:09:13.417Z,5.60
2022-10-26T15:12:20.687Z,5.20
2022-10-26T15:15:38.907Z,5.40
2022-10-26T15:18:46.999Z,6.45
2022-10-26T15:21:57.579Z,8.47
2022-10-26T15:28:12.081Z,6.00
2022-10-26T15:31:29.967Z,5.85
2022-10-26T15:34:38.144Z,5.35
2022-10-26T15:37:44.167Z,5.80
2022-10-26T15:40:49.422Z,9.15
2022-10-26T15:43:56.136Z,6.97
2022-10-26T15:47:05.116Z,6.25
2022-10-26T15:50:09.016Z,5.85
2022-10-26T15:53:19.139Z,5.97
2022-10-26T15:56:29.140Z,5.55
2022-10-26T15:59:34.558Z,5.53
2022-10-26T16:02:39.109Z,5.10
2022-10-26T16:05:43.875Z,4.40
2022-10-26T16:08:50.484Z,5.12
2022-10-26T16:11:58.298Z,4.85
2022-10-26T16:15:07.368Z,4.80
2022-10-26T16:18:12.887Z,5.00
2022-10-26T16:21:18.694Z,8.85
2022-10-26T16:24:25.143Z,8.50
2022-10-26T16:27:33.028Z,5.12
2022-10-26T16:30:38.757Z,8.55
2022-10-26T16:33:50.529Z,6.55
2022-10-26T16:36:57.365Z,7.42
2022-10-26T16:40:03.983Z,6.12
2022-10-26T16:43:09.431Z,5.62
2022-10-26T16:46:15.308Z,7.90
2022-10-26T16:49:21.750Z,8.50
2022-10-26T16:52:27.917Z,5.33
2022-10-26T16:55:33.701Z,5.58
2022-10-26T16:58:38.782Z,5.17
2022-10-26T17:01:45.715Z,7.45
2022-10-26T17:04:51.973Z,5.30
2022-10-26T17:07:57.741Z,6.15
2022-10-26T17:11:03.568Z,5.05
2022-10-26T17:14:09.225Z,5.97
2022-10-26T17:17:15.599Z,7.12
2022-10-26T17:20:23.519Z,5.80
2022-10-26T17:23:28.602Z,6.78
2022-10-26T17:26:35.478Z,5.45
2022-10-26T17:29:42.507Z,9.98
2022-10-26T17:32:49.486Z,7.65
2022-10-26T17:35:55.540Z,9.23
2022-10-26T17:39:03.905Z,6.00
2022-10-26T17:42:02.236Z,6.20
2022-10-26T17:45:09.295Z,9.47
2022-10-26T17:48:15.728Z,5.83
2022-10-26T17:51:27.155Z,5.78
2022-10-26T17:54:32.974Z,6.58
2022-10-26T17:57:38.436Z,8.33
2022-10-26T18:00:37.441Z,6.28
2022-10-26T18:03:29.899Z,7.33
2022-10-26T18:06:37.019Z,6.17
2022-10-26T18:09:43.856Z,7.30
2022-10-26T18:12:49.646Z,7.08
2022-10-26T18:15:54.637Z,6.03
2022-10-26T18:19:02.293Z,5.75
2022-10-26T18:22:08.475Z,7.97
2022-10-26T18:25:14.444Z,10.70
2022-10-26T18:28:20.025Z,7.40
2022-10-26T18:31:28.342Z,6.92
2022-10-26T18:34:34.989Z,5.58
2022-10-26T18:37:40.161Z,4.47
2022-10-26T18:40:50.088Z,9.30
2022-10-26T18:43:58.383Z,5.53
2022-10-26T18:47:05.878Z,7.22
2022-10-26T18:50:12.685Z,5.97
2022-10-26T18:53:23.624Z,8.08
2022-10-26T18:56:33.293Z,8.85
2022-10-26T18:59:39.771Z,7.05
2022-10-26T19:02:48.668Z,11.15
2022-10-26T19:05:53.593Z,5.65
2022-10-26T19:09:00.764Z,6.53
2022-10-26T19:12:06.632Z,6.67
2022-10-26T19:15:12.214Z,7.25
2022-10-26T19:18:17.874Z,4.75
2022-10-26T19:21:28.037Z,8.18
2022-10-26T19:24:35.760Z,7.08
2022-10-26T19:27:42.775Z,9.78
2022-10-26T19:30:48.632Z,9.35
2022-10-26T19:33:55.252Z,13.68
2022-10-26T19:37:02.516Z,12.18
2022-10-26T19:40:08.303Z,12.25
2022-10-26T19:43:14.622Z,12.37
2022-10-26T19:46:29.469Z,14.58
2022-10-26T19:49:34.847Z,17.02
2022-10-26T19:52:40.401Z,14.23
2022-10-26T19:55:46.577Z,16.75
2022-10-26T19:58:52.127Z,13.83
2022-10-26T20:01:58.173Z,17.35
2022-10-26T20:05:03.335Z,13.98
2022-10-26T20:08:09.435Z,16.45
2022-10-26T20:11:15.934Z,12.65
2022-10-26T20:14:22.391Z,15.50
2022-10-26T20:17:29.175Z,15.43
2022-10-26T20:20:38.052Z,11.68
2022-10-26T20:23:43.899Z,17.37
2022-10-26T20:26:50.428Z,11.08
2022-10-26T20:29:56.469Z,9.88
2022-10-26T20:33:03.146Z,14.50
2022-10-26T20:36:14.592Z,14.18
2022-10-26T20:39:22.274Z,10.82
2022-10-26T20:42:37.254Z,12.73
2022-10-26T20:45:44.765Z,12.98
2022-10-26T20:48:51.452Z,12.10
2022-10-26T20:52:19.908Z,10.95
2022-10-26T20:55:26.519Z,11.75
2022-10-26T20:58:55.596Z,10.38
2022-10-26T21:02:01.298Z,14.15
2022-10-26T21:05:07.432Z,15.13
2022-10-26T21:08:15.441Z,20.43
2022-10-26T21:11:21.462Z,17.55
2022-10-26T21:14:28.209Z,15.32
2022-10-26T21:17:35.328Z,14.73
2022-10-26T21:20:41.340Z,16.77
2022-10-26T21:23:51.987Z,10.95
2022-10-26T21:26:50.721Z,16.90
2022-10-26T21:29:50.846Z,10.10
2022-10-26T21:36:09.583Z,6.40
2022-10-26T21:39:08.866Z,6.20
2022-10-26T21:42:03.332Z,6.62
2022-10-26T21:45:08.784Z,4.75
2022-10-26T21:48:15.230Z,4.85
2022-10-26T21:51:24.549Z,5.22
2022-10-26T21:54:29.666Z,7.12
2022-10-26T21:57:35.406Z,5.60
2022-10-26T22:00:42.578Z,5.10
2022-10-26T22:03:47.908Z,6.37
2022-10-26T22:06:54.578Z,10.93
2022-10-26T22:10:09.643Z,6.40
2022-10-26T22:13:02.910Z,8.45
2022-10-26T22:16:24.404Z,6.67
2022-10-26T22:19:31.207Z,8.80
2022-10-26T22:22:36.767Z,7.17
2022-10-26T22:25:43.386Z,6.75
2022-10-26T22:28:51.193Z,7.70
2022-10-26T22:31:57.604Z,7.95
2022-10-26T22:35:11.352Z,10.45
2022-10-26T22:38:12.212Z,7.28
2022-10-26T22:41:12.014Z,6.50
2022-10-26T22:44:17.932Z,9.58
2022-10-26T22:47:24.145Z,6.17
2022-10-26T22:50:29.661Z,8.80
2022-10-26T22:53:36.222Z,9.95
2022-10-26T22:56:41.796Z,8.58
2022-10-26T22:59:41.785Z,5.50
2022-10-26T23:02:48.171Z,6.15
2022-10-26T23:06:05.170Z,10.20
2022-10-26T23:09:10.615Z,10.05
2022-10-26T23:12:16.436Z,6.97
2022-10-26T23:15:23.319Z,9.05
2022-10-26T23:18:29.268Z,7.10
2022-10-26T23:21:35.566Z,7.30
2022-10-26T23:24:42.501Z,8.10
2022-10-26T23:27:48.163Z,8.43
2022-10-26T23:30:54.593Z,7.00
2022-10-26T23:34:01.681Z,6.70
2022-10-26T23:37:08.467Z,6.95
2022-10-26T23:40:14.843Z,7.65
2022-10-26T23:43:21.113Z,10.15
2022-10-26T23:49:33.997Z,10.40
2022-10-26T23:52:40.045Z,7.17
2022-10-26T23:55:39.767Z,8.53
2022-10-26T23:58:46.165Z,9.60
